createdAt,value
2022-08-05T00:00:52.398Z,5.50
2022-08-05T00:03:57.250Z,4.70
2022-08-05T00:07:00.446Z,5.38
2022-08-05T00:10:27.070Z,5.10
2022-08-05T00:13:38.285Z,4.93
2022-08-05T00:16:53.702Z,5.68
2022-08-05T00:20:02.694Z,4.63
2022-08-05T00:23:13.025Z,4.68
2022-08-05T00:26:16.640Z,4.90
2022-08-05T00:29:22.837Z,4.83
2022-08-05T00:32:28.597Z,4.90
2022-08-05T00:35:33.184Z,4.90
2022-08-05T00:38:36.515Z,4.32
2022-08-05T00:41:51.875Z,4.80
2022-08-05T00:44:58.645Z,4.60
2022-08-05T00:48:05.757Z,4.68
2022-08-05T00:51:51.505Z,4.70
2022-08-05T00:54:32.182Z,4.22
2022-08-05T00:57:55.573Z,4.97
2022-08-05T01:00:58.185Z,4.87
2022-08-05T01:04:01.382Z,5.05
2022-08-05T01:07:05.209Z,5.15
2022-08-05T01:10:09.018Z,5.20
2022-08-05T01:13:58.030Z,4.63
2022-08-05T01:17:11.107Z,4.80
2022-08-05T01:20:20.461Z,4.68
2022-08-05T01:23:43.857Z,4.90
2022-08-05T01:26:59.551Z,4.45
2022-08-05T01:30:04.051Z,4.90
2022-08-05T01:33:09.515Z,4.70
2022-08-05T01:36:16.254Z,4.85
2022-08-05T01:39:46.196Z,4.80
2022-08-05T01:42:42.803Z,5.45
2022-08-05T01:45:45.752Z,5.33
2022-08-05T01:48:59.880Z,5.33
2022-08-05T01:52:17.589Z,5.15
2022-08-05T01:55:22.413Z,5.70
2022-08-05T01:58:40.504Z,5.93
2022-08-05T02:01:47.876Z,5.80
2022-08-05T02:04:51.935Z,5.30
2022-08-05T02:08:00.399Z,5.50
2022-08-05T02:11:11.809Z,5.30
2022-08-05T02:14:21.058Z,5.63
2022-08-05T02:18:28.495Z,5.60
2022-08-05T02:20:58.690Z,5.60
2022-08-05T02:24:06.391Z,5.60
2022-08-05T02:27:10.670Z,6.30
2022-08-05T02:30:13.968Z,6.10
2022-08-05T02:33:24.478Z,6.40
2022-08-05T02:36:48.824Z,6.13
2022-08-05T02:39:51.843Z,6.45
2022-08-05T02:42:55.329Z,5.78
2022-08-05T02:45:58.301Z,6.15
2022-08-05T02:49:04.196Z,5.90
2022-08-05T02:52:30.261Z,5.60
2022-08-05T02:55:55.099Z,5.75
2022-08-05T02:58:56.750Z,6.20
2022-08-05T03:02:01.208Z,6.32
2022-08-05T03:05:04.560Z,6.57
2022-08-05T03:08:08.853Z,6.67
2022-08-05T03:11:54.713Z,7.18
2022-08-05T03:14:45.962Z,6.45
2022-08-05T03:17:49.307Z,5.82
2022-08-05T03:20:57.260Z,6.27
2022-08-05T03:24:00.813Z,6.20
2022-08-05T03:27:06.640Z,6.18
2022-08-05T03:30:10.331Z,6.38
2022-08-05T03:33:13.387Z,6.05
2022-08-05T03:36:16.800Z,6.50
2022-08-05T03:39:38.202Z,6.37
2022-08-05T03:42:56.361Z,6.30
2022-08-05T03:45:59.324Z,5.93
2022-08-05T03:49:03.020Z,6.47
2022-08-05T03:52:38.563Z,5.73
2022-08-05T03:56:04.181Z,6.57
2022-08-05T03:59:06.364Z,6.25
2022-08-05T04:02:13.410Z,6.43
2022-08-05T04:05:20.604Z,5.75
2022-08-05T04:08:35.340Z,5.80
2022-08-05T04:11:47.410Z,5.57
2022-08-05T04:14:54.236Z,6.13
2022-08-05T04:18:03.891Z,6.28
2022-08-05T04:21:11.051Z,6.18
2022-08-05T04:24:19.310Z,6.23
2022-08-05T04:27:41.908Z,6.80
2022-08-05T04:30:47.321Z,6.70
2022-08-05T04:34:17.404Z,6.82
2022-08-05T04:37:14.115Z,7.00
2022-08-05T04:40:19.294Z,7.27
2022-08-05T04:43:22.725Z,7.47
2022-08-05T04:46:29.024Z,6.10
2022-08-05T04:49:39.105Z,6.53
2022-08-05T04:52:54.986Z,7.15
2022-08-05T04:56:34.017Z,7.87
2022-08-05T04:59:38.327Z,6.53
2022-08-05T05:02:43.107Z,6.80
2022-08-05T05:06:40.280Z,6.55
2022-08-05T05:09:13.249Z,6.53
2022-08-05T05:12:17.401Z,5.13
2022-08-05T05:15:56.891Z,5.37
2022-08-05T05:19:02.583Z,4.80
2022-08-05T05:22:22.816Z,5.40
2022-08-05T05:25:40.233Z,5.20
2022-08-05T05:28:44.874Z,4.90
2022-08-05T05:31:48.143Z,4.20
2022-08-05T05:34:52.358Z,4.72
2022-08-05T05:37:59.954Z,4.30
2022-08-05T05:41:03.624Z,4.22
2022-08-05T05:44:36.923Z,4.60
2022-08-05T05:48:06.370Z,4.23
2022-08-05T05:50:57.844Z,4.50
2022-08-05T05:54:00.941Z,4.78
2022-08-05T05:57:04.004Z,3.60
2022-08-05T06:00:19.591Z,4.80
2022-08-05T06:03:40.027Z,4.23
2022-08-05T06:06:47.536Z,4.65
2022-08-05T06:10:01.350Z,4.88
2022-08-05T06:13:07.638Z,4.00
2022-08-05T06:16:29.806Z,4.13
2022-08-05T06:19:35.696Z,4.20
2022-08-05T06:22:40.522Z,3.92
2022-08-05T06:26:13.764Z,4.05
2022-08-05T06:29:25.248Z,4.50
2022-08-05T06:32:31.387Z,3.97
2022-08-05T06:36:07.318Z,4.23
2022-08-05T06:38:57.379Z,4.20
2022-08-05T06:42:03.997Z,5.07
2022-08-05T06:45:09.163Z,4.13
2022-08-05T06:48:55.527Z,5.40
2022-08-05T06:51:35.373Z,4.90
2022-08-05T06:54:43.646Z,5.00
2022-08-05T06:58:02.640Z,4.97
2022-08-05T07:01:14.703Z,5.55
2022-08-05T07:04:23.817Z,5.30
2022-08-05T07:07:35.618Z,5.10
2022-08-05T07:10:52.729Z,4.82
2022-08-05T07:14:20.086Z,4.50
2022-08-05T07:17:59.467Z,4.20
2022-08-05T07:20:46.253Z,4.47
2022-08-05T07:23:50.588Z,4.50
2022-08-05T07:26:55.347Z,4.80
2022-08-05T07:30:25.484Z,4.38
2022-08-05T07:33:37.184Z,5.30
2022-08-05T07:36:40.647Z,4.73
2022-08-05T07:40:26.012Z,4.20
2022-08-05T07:43:20.092Z,4.80
2022-08-05T07:46:27.579Z,4.50
2022-08-05T07:49:30.523Z,4.10
2022-08-05T07:52:35.942Z,4.60
2022-08-05T07:55:44.381Z,4.37
2022-08-05T07:59:04.015Z,4.20
2022-08-05T08:02:10.662Z,3.92
2022-08-05T08:05:19.327Z,4.20
2022-08-05T08:08:22.302Z,4.27
2022-08-05T08:11:27.478Z,3.77
2022-08-05T08:14:48.197Z,3.90
2022-08-05T08:17:53.171Z,3.97
2022-08-05T08:21:01.925Z,3.70
2022-08-05T08:24:13.549Z,4.07
2022-08-05T08:27:17.172Z,3.63
2022-08-05T08:30:34.145Z,3.70
2022-08-05T08:33:39.446Z,4.10
2022-08-05T08:36:50.510Z,3.92
2022-08-05T08:39:55.691Z,3.97
2022-08-05T08:42:58.786Z,3.73
2022-08-05T08:46:21.788Z,3.90
2022-08-05T08:50:22.915Z,3.92
2022-08-05T08:52:56.871Z,4.10
2022-08-05T08:56:03.691Z,4.03
2022-08-05T08:59:14.882Z,4.43
2022-08-05T09:02:26.626Z,4.00
2022-08-05T09:05:38.965Z,4.45
2022-08-05T09:08:52.993Z,4.05
2022-08-05T09:12:01.251Z,4.20
2022-08-05T09:15:12.233Z,4.23
2022-08-05T09:18:18.054Z,4.30
2022-08-05T09:22:21.852Z,4.28
2022-08-05T09:25:00.830Z,4.35
2022-08-05T09:28:31.991Z,4.00
2022-08-05T09:32:42.017Z,4.70
2022-08-05T09:35:00.823Z,4.43
2022-08-05T09:38:13.030Z,4.10
2022-08-05T09:41:21.492Z,4.28
2022-08-05T09:44:38.147Z,4.43
2022-08-05T09:47:49.018Z,4.33
2022-08-05T09:51:15.316Z,4.60
2022-08-05T09:54:21.381Z,4.60
2022-08-05T09:57:47.101Z,5.05
2022-08-05T10:01:13.489Z,4.47
2022-08-05T10:04:18.561Z,5.10
2022-08-05T10:08:35.972Z,4.95
2022-08-05T10:11:31.224Z,4.53
2022-08-05T10:14:38.212Z,5.03
2022-08-05T10:17:47.402Z,4.97
2022-08-05T10:21:08.597Z,5.00
2022-08-05T10:24:21.620Z,4.75
2022-08-05T10:28:09.067Z,5.07
2022-08-05T10:32:48.002Z,5.13
2022-08-05T10:34:42.359Z,5.20
2022-08-05T10:37:45.321Z,4.87
2022-08-05T10:40:58.197Z,5.00
2022-08-05T10:44:07.267Z,4.80
2022-08-05T10:47:26.897Z,5.00
2022-08-05T10:50:37.143Z,5.00
2022-08-05T10:53:54.471Z,4.60
2022-08-05T10:56:57.618Z,4.60
2022-08-05T11:00:19.251Z,4.72
2022-08-05T11:03:26.960Z,5.07
2022-08-05T11:06:31.137Z,5.17
2022-08-05T11:09:50.516Z,4.63
2022-08-05T11:13:07.472Z,5.10
2022-08-05T11:16:47.895Z,4.90
2022-08-05T11:20:11.054Z,5.20
2022-08-05T11:24:04.264Z,5.43
2022-08-05T11:27:50.182Z,4.90
2022-08-05T11:30:58.541Z,4.90
2022-08-05T11:34:06.508Z,5.18
2022-08-05T11:38:28.890Z,5.15
2022-08-05T11:41:12.837Z,5.90
2022-08-05T11:44:40.593Z,5.32
2022-08-05T11:47:48.425Z,5.55
2022-08-05T11:50:52.642Z,6.10
2022-08-05T11:53:56.233Z,5.60
2022-08-05T11:57:00.703Z,4.95
2022-08-05T12:00:27.540Z,5.47
2022-08-05T12:03:41.816Z,5.30
2022-08-05T12:06:48.668Z,5.55
2022-08-05T12:09:55.108Z,5.50
2022-08-05T12:13:04.692Z,6.00
2022-08-05T12:16:20.262Z,5.63
2022-08-05T12:20:27.527Z,5.70
2022-08-05T12:22:51.942Z,5.45
2022-08-05T12:25:57.000Z,5.60
2022-08-05T12:29:01.507Z,5.60
2022-08-05T12:32:09.481Z,5.60
2022-08-05T12:35:16.797Z,6.15
2022-08-05T12:38:30.239Z,6.00
2022-08-05T12:41:35.963Z,5.70
2022-08-05T12:44:47.556Z,5.88
2022-08-05T12:48:01.764Z,5.90
2022-08-05T12:52:10.339Z,6.00
2022-08-05T12:54:41.081Z,5.70
2022-08-05T12:58:39.847Z,5.68
2022-08-05T13:02:02.521Z,6.23
2022-08-05T13:04:34.756Z,5.80
2022-08-05T13:08:02.061Z,6.50
2022-08-05T13:11:07.944Z,6.20
2022-08-05T13:14:24.971Z,6.10
2022-08-05T13:17:41.689Z,4.97
2022-08-05T13:20:45.534Z,5.10
2022-08-05T13:23:50.783Z,4.60
2022-08-05T13:26:55.278Z,4.57
2022-08-05T13:29:59.536Z,4.93
2022-08-05T13:34:23.128Z,4.80
2022-08-05T13:36:45.218Z,5.00
2022-08-05T13:40:14.140Z,4.80
2022-08-05T13:43:12.456Z,4.65
2022-08-05T13:46:16.264Z,4.70
2022-08-05T13:49:19.459Z,4.97
2022-08-05T13:52:29.228Z,5.23
2022-08-05T13:55:41.033Z,4.70
2022-08-05T13:58:53.098Z,5.35
2022-08-05T14:01:59.465Z,4.97
2022-08-05T14:05:12.125Z,5.20
2022-08-05T14:08:20.748Z,4.60
2022-08-05T14:11:31.349Z,4.97
2022-08-05T14:14:34.413Z,4.55
2022-08-05T14:17:37.371Z,5.20
2022-08-05T14:20:40.450Z,4.88
2022-08-05T14:23:50.009Z,5.20
2022-08-05T14:27:15.495Z,5.23
2022-08-05T14:30:20.284Z,4.65
2022-08-05T14:33:24.576Z,5.30
2022-08-05T14:36:27.547Z,5.20
2022-08-05T14:39:30.540Z,4.93
2022-08-05T14:42:53.170Z,4.80
2022-08-05T14:45:56.150Z,4.60
2022-08-05T14:49:03.477Z,4.32
2022-08-05T14:52:10.661Z,4.10
2022-08-05T14:55:21.477Z,5.00
2022-08-05T14:58:24.547Z,4.00
2022-08-05T15:01:49.081Z,4.55
2022-08-05T15:04:50.632Z,4.95
2022-08-05T15:08:12.406Z,4.90
2022-08-05T15:11:16.640Z,4.90
2022-08-05T15:14:33.306Z,4.73
2022-08-05T15:17:46.123Z,5.10
2022-08-05T15:20:54.134Z,5.10
2022-08-05T15:23:57.134Z,4.97
2022-08-05T15:27:00.987Z,4.73
2022-08-05T15:30:04.502Z,5.00
2022-08-05T15:33:07.864Z,4.65
2022-08-05T15:36:16.821Z,3.97
2022-08-05T15:41:01.806Z,4.55
2022-08-05T15:42:55.277Z,5.20
2022-08-05T15:46:01.647Z,5.50
2022-08-05T15:49:10.451Z,5.13
2022-08-05T15:52:29.060Z,5.00
2022-08-05T15:56:02.183Z,4.85
2022-08-05T15:58:56.117Z,4.57
2022-08-05T16:01:59.551Z,4.80
2022-08-05T16:05:05.487Z,4.38
2022-08-05T16:08:16.157Z,4.00
2022-08-05T16:11:21.046Z,4.35
2022-08-05T16:14:42.679Z,4.53
2022-08-05T16:17:57.300Z,5.20
2022-08-05T16:21:04.647Z,4.78
2022-08-05T16:24:20.573Z,4.72
2022-08-05T16:27:32.074Z,5.20
2022-08-05T16:30:54.132Z,4.80
2022-08-05T16:33:57.145Z,5.10
2022-08-05T16:37:00.103Z,4.40
2022-08-05T16:40:07.103Z,5.00
2022-08-05T16:43:16.587Z,5.10
2022-08-05T16:46:23.752Z,4.73
2022-08-05T16:49:27.143Z,5.50
2022-08-05T16:52:33.376Z,4.65
2022-08-05T16:55:46.874Z,5.20
2022-08-05T16:58:50.439Z,5.13
2022-08-05T17:01:55.901Z,4.80
2022-08-05T17:04:59.293Z,5.33
2022-08-05T17:08:02.726Z,5.20
2022-08-05T17:11:05.819Z,5.05
2022-08-05T17:14:13.021Z,4.32
2022-08-05T17:17:42.334Z,4.93
2022-08-05T17:20:45.818Z,5.30
2022-08-05T17:24:05.571Z,5.13
2022-08-05T17:27:11.873Z,4.63
2022-08-05T17:30:28.872Z,5.03
2022-08-05T17:33:38.820Z,5.60
2022-08-05T17:36:51.005Z,5.40
2022-08-05T17:39:55.218Z,5.05
2022-08-05T17:42:59.153Z,5.28
2022-08-05T17:46:02.105Z,5.00
2022-08-05T17:49:05.280Z,4.77
2022-08-05T17:52:09.912Z,5.00
2022-08-05T17:55:14.910Z,4.90
2022-08-05T17:58:21.597Z,5.05
2022-08-05T18:01:47.223Z,5.50
2022-08-05T18:04:55.031Z,5.43
2022-08-05T18:07:58.243Z,4.73
2022-08-05T18:11:01.272Z,5.00
2022-08-05T18:14:13.518Z,4.53
2022-08-05T18:18:00.354Z,4.45
2022-08-05T18:20:46.922Z,5.03
2022-08-05T18:23:53.851Z,5.70
2022-08-05T18:26:57.211Z,5.82
2022-08-05T18:30:01.124Z,6.43
2022-08-05T18:33:04.209Z,6.07
2022-08-05T18:36:15.093Z,6.60
2022-08-05T18:39:42.477Z,6.63
2022-08-05T18:42:41.989Z,6.57
2022-08-05T18:45:44.962Z,7.00
2022-08-05T18:48:51.927Z,7.38
2022-08-05T18:52:13.960Z,7.27
2022-08-05T18:55:17.849Z,6.70
2022-08-05T18:58:28.552Z,6.97
2022-08-05T19:01:33.358Z,6.93
2022-08-05T19:05:02.900Z,6.30
2022-08-05T19:08:38.332Z,6.77
2022-08-05T19:12:00.986Z,6.33
2022-08-05T19:15:04.711Z,6.90
2022-08-05T19:18:10.709Z,7.22
2022-08-05T19:21:16.737Z,8.32
2022-08-05T19:24:34.806Z,8.00
2022-08-05T19:27:38.084Z,8.27
2022-08-05T19:30:44.728Z,8.00
2022-08-05T19:33:56.583Z,7.53
2022-08-05T19:37:00.053Z,7.38
2022-08-05T19:40:03.305Z,7.43
2022-08-05T19:43:31.255Z,7.00
2022-08-05T19:46:39.522Z,7.55
2022-08-05T19:49:42.552Z,7.82
2022-08-05T19:52:48.092Z,7.55
2022-08-05T19:56:12.454Z,6.67
2022-08-05T19:59:53.831Z,8.03
2022-08-05T20:02:37.050Z,7.03
2022-08-05T20:05:43.280Z,7.22
2022-08-05T20:08:53.088Z,8.27
2022-08-05T20:11:56.756Z,9.53
2022-08-05T20:15:00.707Z,9.27
2022-08-05T20:18:04.439Z,9.38
2022-08-05T20:21:15.176Z,8.20
2022-08-05T20:24:21.863Z,8.95
2022-08-05T20:27:27.370Z,9.13
2022-08-05T20:30:44.967Z,8.97
2022-08-05T20:33:48.154Z,8.90
2022-08-05T20:36:52.491Z,8.60
2022-08-05T20:39:55.779Z,9.07
2022-08-05T20:43:03.752Z,10.07
2022-08-05T20:46:07.077Z,10.00
2022-08-05T20:49:10.061Z,9.27
2022-08-05T20:52:15.496Z,9.18
2022-08-05T20:55:54.759Z,9.10
2022-08-05T20:58:43.491Z,8.70
2022-08-05T21:01:46.621Z,7.83
2022-08-05T21:04:50.297Z,7.45
2022-08-05T21:07:54.705Z,9.10
2022-08-05T21:10:58.882Z,8.57
2022-08-05T21:14:03.382Z,8.70
2022-08-05T21:17:08.676Z,8.73
2022-08-05T21:20:11.855Z,8.35
2022-08-05T21:23:15.050Z,8.40
2022-08-05T21:26:18.491Z,7.65
2022-08-05T21:29:23.573Z,7.73
2022-08-05T21:32:29.940Z,7.90
2022-08-05T21:35:55.827Z,7.07
2022-08-05T21:38:57.222Z,7.50
2022-08-05T21:42:02.417Z,7.50
2022-08-05T21:45:06.239Z,7.10
2022-08-05T21:48:14.085Z,7.27
2022-08-05T21:52:16.192Z,7.00
2022-08-05T21:54:41.404Z,8.07
2022-08-05T21:57:44.673Z,7.80
2022-08-05T22:00:51.201Z,7.87
2022-08-05T22:03:54.760Z,8.17
2022-08-05T22:06:59.110Z,8.65
2022-08-05T22:10:02.093Z,9.10
2022-08-05T22:13:08.815Z,8.55
2022-08-05T22:16:41.786Z,8.77
2022-08-05T22:20:00.541Z,8.67
2022-08-05T22:24:03.227Z,8.45
2022-08-05T22:27:10.941Z,7.95
2022-08-05T22:30:19.726Z,7.88
2022-08-05T22:33:55.907Z,8.00
2022-08-05T22:36:45.961Z,8.07
2022-08-05T22:39:51.256Z,7.65
2022-08-05T22:42:58.471Z,7.88
2022-08-05T22:46:04.629Z,7.43
2022-08-05T22:49:46.245Z,7.33
2022-08-05T22:52:36.228Z,7.90
2022-08-05T22:55:57.367Z,7.70
2022-08-05T22:59:04.013Z,7.38
2022-08-05T23:02:29.402Z,7.07
2022-08-05T23:05:33.042Z,7.80
2022-08-05T23:08:39.190Z,7.50
2022-08-05T23:11:46.694Z,7.60
2022-08-05T23:14:53.227Z,8.23
2022-08-05T23:18:01.757Z,7.95
2022-08-05T23:21:06.316Z,7.93
2022-08-05T23:24:13.293Z,7.30
2022-08-05T23:27:16.636Z,8.02
2022-08-05T23:30:27.177Z,7.47
2022-08-05T23:34:03.048Z,7.93
2022-08-05T23:36:56.337Z,8.10
2022-08-05T23:40:02.261Z,7.40
2022-08-05T23:43:24.358Z,7.72
2022-08-05T23:46:33.840Z,8.15
2022-08-05T23:49:40.496Z,7.70
2022-08-05T23:52:49.704Z,8.40
2022-08-05T23:55:53.697Z,8.07
2022-08-05T23:58:58.662Z,8.30
